sensor_id;sensor_type;location;lat;lon;timestamp;P1;durP1;ratioP1;P2;durP2;ratioP2
69910;SDS011;63555;49.920;17.868;2024-03-22T00:03:47;14.90;;;6.40;;
69910;SDS011;63555;49.920;17.868;2024-03-22T00:08:47;14.43;;;7.07;;
69910;SDS011;63555;49.920;17.868;2024-03-22T00:13:48;15.83;;;6.97;;
69910;SDS011;63555;49.920;17.868;2024-03-22T00:18:48;15.10;;;7.40;;
69910;SDS011;63555;49.920;17.868;2024-03-22T00:23:48;17.83;;;8.20;;
69910;SDS011;63555;49.920;17.868;2024-03-22T00:28:49;16.00;;;7.63;;
69910;SDS011;63555;49.920;17.868;2024-03-22T00:33:49;16.37;;;8.10;;
69910;SDS011;63555;49.920;17.868;2024-03-22T00:38:50;17.48;;;8.63;;
69910;SDS011;63555;49.920;17.868;2024-03-22T00:43:50;19.97;;;8.60;;
69910;SDS011;63555;49.920;17.868;2024-03-22T00:48:50;22.10;;;9.57;;
69910;SDS011;63555;49.920;17.868;2024-03-22T00:53:51;19.73;;;8.60;;
69910;SDS011;63555;49.920;17.868;2024-03-22T00:58:51;18.57;;;8.60;;
69910;SDS011;63555;49.920;17.868;2024-03-22T01:03:52;19.73;;;8.68;;
69910;SDS011;63555;49.920;17.868;2024-03-22T01:08:52;18.87;;;8.67;;
69910;SDS011;63555;49.920;17.868;2024-03-22T01:13:52;16.63;;;8.13;;
69910;SDS011;63555;49.920;17.868;2024-03-22T01:18:53;18.57;;;8.57;;
69910;SDS011;63555;49.920;17.868;2024-03-22T01:23:53;17.13;;;8.17;;
69910;SDS011;63555;49.920;17.868;2024-03-22T01:28:53;17.73;;;8.47;;
69910;SDS011;63555;49.920;17.868;2024-03-22T01:33:54;17.77;;;8.03;;
69910;SDS011;63555;49.920;17.868;2024-03-22T01:38:54;17.47;;;8.40;;
69910;SDS011;63555;49.920;17.868;2024-03-22T01:43:55;19.17;;;9.33;;
69910;SDS011;63555;49.920;17.868;2024-03-22T01:48:55;17.87;;;8.77;;
69910;SDS011;63555;49.920;17.868;2024-03-22T01:53:55;18.80;;;8.67;;
69910;SDS011;63555;49.920;17.868;2024-03-22T01:58:59;17.63;;;9.37;;
69910;SDS011;63555;49.920;17.868;2024-03-22T02:03:59;20.70;;;9.53;;
69910;SDS011;63555;49.920;17.868;2024-03-22T02:09:00;24.53;;;11.63;;
69910;SDS011;63555;49.920;17.868;2024-03-22T02:14:00;25.70;;;11.15;;
69910;SDS011;63555;49.920;17.868;2024-03-22T02:19:01;22.47;;;10.30;;
69910;SDS011;63555;49.920;17.868;2024-03-22T02:24:01;25.30;;;11.30;;
69910;SDS011;63555;49.920;17.868;2024-03-22T02:29:02;25.25;;;11.05;;
69910;SDS011;63555;49.920;17.868;2024-03-22T02:34:02;22.33;;;11.03;;
69910;SDS011;63555;49.920;17.868;2024-03-22T02:39:02;23.70;;;9.60;;
69910;SDS011;63555;49.920;17.868;2024-03-22T02:44:03;25.63;;;11.07;;
69910;SDS011;63555;49.920;17.868;2024-03-22T02:49:03;29.33;;;11.63;;
69910;SDS011;63555;49.920;17.868;2024-03-22T02:54:04;25.25;;;10.82;;
69910;SDS011;63555;49.920;17.868;2024-03-22T02:59:04;24.33;;;10.67;;
69910;SDS011;63555;49.920;17.868;2024-03-22T03:04:05;21.90;;;10.03;;
69910;SDS011;63555;49.920;17.868;2024-03-22T03:09:05;20.57;;;9.77;;
69910;SDS011;63555;49.920;17.868;2024-03-22T03:14:09;21.75;;;11.05;;
69910;SDS011;63555;49.920;17.868;2024-03-22T03:19:09;24.13;;;10.63;;
69910;SDS011;63555;49.920;17.868;2024-03-22T03:24:09;26.07;;;11.83;;
69910;SDS011;63555;49.920;17.868;2024-03-22T03:29:10;23.13;;;9.87;;
69910;SDS011;63555;49.920;17.868;2024-03-22T03:34:10;24.33;;;10.13;;
69910;SDS011;63555;49.920;17.868;2024-03-22T03:39:11;22.27;;;9.87;;
69910;SDS011;63555;49.920;17.868;2024-03-22T03:44:11;22.63;;;10.77;;
69910;SDS011;63555;49.920;17.868;2024-03-22T03:49:11;27.77;;;12.00;;
69910;SDS011;63555;49.920;17.868;2024-03-22T03:54:12;22.83;;;10.53;;
69910;SDS011;63555;49.920;17.868;2024-03-22T03:59:12;21.27;;;10.10;;
69910;SDS011;63555;49.920;17.868;2024-03-22T04:04:12;26.13;;;10.90;;
69910;SDS011;63555;49.920;17.868;2024-03-22T04:09:13;25.23;;;9.93;;
69910;SDS011;63555;49.920;17.868;2024-03-22T04:14:13;25.70;;;11.57;;
69910;SDS011;63555;49.920;17.868;2024-03-22T04:19:14;29.27;;;11.75;;
69910;SDS011;63555;49.920;17.868;2024-03-22T04:24:14;25.57;;;11.30;;
69910;SDS011;63555;49.920;17.868;2024-03-22T04:29:14;24.63;;;9.93;;
69910;SDS011;63555;49.920;17.868;2024-03-22T04:34:15;29.43;;;10.60;;
69910;SDS011;63555;49.920;17.868;2024-03-22T04:39:15;22.43;;;10.37;;
69910;SDS011;63555;49.920;17.868;2024-03-22T04:44:16;26.70;;;10.90;;
69910;SDS011;63555;49.920;17.868;2024-03-22T04:49:17;23.80;;;10.17;;
69910;SDS011;63555;49.920;17.868;2024-03-22T04:54:17;22.23;;;10.70;;
69910;SDS011;63555;49.920;17.868;2024-03-22T04:59:17;27.93;;;11.57;;
69910;SDS011;63555;49.920;17.868;2024-03-22T05:04:18;25.67;;;11.17;;
69910;SDS011;63555;49.920;17.868;2024-03-22T05:09:18;25.83;;;10.90;;
69910;SDS011;63555;49.920;17.868;2024-03-22T05:14:19;23.43;;;10.87;;
69910;SDS011;63555;49.920;17.868;2024-03-22T05:19:19;24.73;;;10.73;;
69910;SDS011;63555;49.920;17.868;2024-03-22T05:24:20;27.30;;;11.93;;
69910;SDS011;63555;49.920;17.868;2024-03-22T05:29:20;23.27;;;11.10;;
69910;SDS011;63555;49.920;17.868;2024-03-22T05:34:23;25.07;;;10.83;;
69910;SDS011;63555;49.920;17.868;2024-03-22T05:39:23;23.83;;;10.82;;
69910;SDS011;63555;49.920;17.868;2024-03-22T05:44:24;24.67;;;10.97;;
69910;SDS011;63555;49.920;17.868;2024-03-22T05:49:24;24.13;;;11.57;;
69910;SDS011;63555;49.920;17.868;2024-03-22T05:54:25;23.27;;;10.30;;
69910;SDS011;63555;49.920;17.868;2024-03-22T05:59:25;21.20;;;9.53;;
69910;SDS011;63555;49.920;17.868;2024-03-22T06:04:25;20.23;;;8.53;;
69910;SDS011;63555;49.920;17.868;2024-03-22T06:09:26;18.97;;;8.67;;
69910;SDS011;63555;49.920;17.868;2024-03-22T06:14:39;18.48;;;8.25;;
69910;SDS011;63555;49.920;17.868;2024-03-22T06:19:40;18.80;;;7.95;;
69910;SDS011;63555;49.920;17.868;2024-03-22T06:24:41;19.03;;;8.50;;
69910;SDS011;63555;49.920;17.868;2024-03-22T06:29:41;19.73;;;9.23;;
69910;SDS011;63555;49.920;17.868;2024-03-22T06:34:41;17.97;;;8.30;;
69910;SDS011;63555;49.920;17.868;2024-03-22T06:39:42;20.63;;;8.73;;
69910;SDS011;63555;49.920;17.868;2024-03-22T06:44:42;18.20;;;8.40;;
69910;SDS011;63555;49.920;17.868;2024-03-22T06:49:43;18.07;;;7.77;;
69910;SDS011;63555;49.920;17.868;2024-03-22T06:54:43;17.70;;;7.60;;
69910;SDS011;63555;49.920;17.868;2024-03-22T06:59:43;17.87;;;7.67;;
69910;SDS011;63555;49.920;17.868;2024-03-22T07:04:44;16.57;;;8.30;;
69910;SDS011;63555;49.920;17.868;2024-03-22T07:09:44;18.43;;;9.23;;
69910;SDS011;63555;49.920;17.868;2024-03-22T07:14:47;18.58;;;8.45;;
69910;SDS011;63555;49.920;17.868;2024-03-22T07:19:48;19.70;;;8.30;;
69910;SDS011;63555;49.920;17.868;2024-03-22T07:24:48;20.50;;;9.43;;
69910;SDS011;63555;49.920;17.868;2024-03-22T07:29:49;19.53;;;10.00;;
69910;SDS011;63555;49.920;17.868;2024-03-22T07:34:50;18.80;;;8.17;;
69910;SDS011;63555;49.920;17.868;2024-03-22T07:39:50;19.70;;;9.03;;
69910;SDS011;63555;49.920;17.868;2024-03-22T07:44:50;23.37;;;9.20;;
69910;SDS011;63555;49.920;17.868;2024-03-22T07:49:51;20.53;;;9.30;;
69910;SDS011;63555;49.920;17.868;2024-03-22T07:54:51;17.87;;;8.40;;
69910;SDS011;63555;49.920;17.868;2024-03-22T07:59:52;20.80;;;9.53;;
69910;SDS011;63555;49.920;17.868;2024-03-22T08:04:52;24.73;;;9.17;;
69910;SDS011;63555;49.920;17.868;2024-03-22T08:09:52;17.80;;;8.17;;
69910;SDS011;63555;49.920;17.868;2024-03-22T08:14:55;16.95;;;8.43;;
69910;SDS011;63555;49.920;17.868;2024-03-22T08:19:56;19.47;;;7.60;;
69910;SDS011;63555;49.920;17.868;2024-03-22T08:24:56;19.93;;;8.10;;
69910;SDS011;63555;49.920;17.868;2024-03-22T08:29:56;16.97;;;7.97;;
69910;SDS011;63555;49.920;17.868;2024-03-22T08:34:57;18.27;;;8.80;;
69910;SDS011;63555;49.920;17.868;2024-03-22T08:39:57;16.10;;;8.00;;
69910;SDS011;63555;49.920;17.868;2024-03-22T08:44:58;19.23;;;7.83;;
69910;SDS011;63555;49.920;17.868;2024-03-22T08:49:58;16.57;;;8.03;;
69910;SDS011;63555;49.920;17.868;2024-03-22T08:54:59;21.13;;;7.70;;
69910;SDS011;63555;49.920;17.868;2024-03-22T08:59:59;15.53;;;7.40;;
69910;SDS011;63555;49.920;17.868;2024-03-22T09:05:00;19.80;;;8.63;;
69910;SDS011;63555;49.920;17.868;2024-03-22T09:10:01;15.50;;;7.77;;
69910;SDS011;63555;49.920;17.868;2024-03-22T09:15:01;19.60;;;7.77;;
69910;SDS011;63555;49.920;17.868;2024-03-22T09:20:02;19.67;;;8.48;;
69910;SDS011;63555;49.920;17.868;2024-03-22T09:25:04;18.73;;;9.17;;
69910;SDS011;63555;49.920;17.868;2024-03-22T09:30:06;14.82;;;6.95;;
69910;SDS011;63555;49.920;17.868;2024-03-22T09:35:06;14.93;;;7.63;;
69910;SDS011;63555;49.920;17.868;2024-03-22T09:40:07;17.43;;;8.00;;
69910;SDS011;63555;49.920;17.868;2024-03-22T09:45:08;16.10;;;7.25;;
69910;SDS011;63555;49.920;17.868;2024-03-22T09:50:10;15.87;;;7.60;;
69910;SDS011;63555;49.920;17.868;2024-03-22T09:55:12;14.55;;;7.10;;
69910;SDS011;63555;49.920;17.868;2024-03-22T10:00:13;14.77;;;6.73;;
69910;SDS011;63555;49.920;17.868;2024-03-22T10:05:16;15.25;;;8.07;;
69910;SDS011;63555;49.920;17.868;2024-03-22T10:10:17;13.67;;;7.03;;
69910;SDS011;63555;49.920;17.868;2024-03-22T10:15:18;13.93;;;7.03;;
69910;SDS011;63555;49.920;17.868;2024-03-22T10:20:19;14.80;;;6.73;;
69910;SDS011;63555;49.920;17.868;2024-03-22T10:25:19;14.30;;;7.00;;
69910;SDS011;63555;49.920;17.868;2024-03-22T10:30:20;12.93;;;6.67;;
69910;SDS011;63555;49.920;17.868;2024-03-22T10:35:21;12.70;;;6.68;;
69910;SDS011;63555;49.920;17.868;2024-03-22T10:40:23;12.75;;;6.75;;
69910;SDS011;63555;49.920;17.868;2024-03-22T10:45:23;12.50;;;6.75;;
69910;SDS011;63555;49.920;17.868;2024-03-22T10:50:27;12.57;;;6.35;;
69910;SDS011;63555;49.920;17.868;2024-03-22T10:55:33;11.90;;;6.10;;
69910;SDS011;63555;49.920;17.868;2024-03-22T11:00:36;13.00;;;6.72;;
69910;SDS011;63555;49.920;17.868;2024-03-22T11:05:46;12.50;;;6.23;;
69910;SDS011;63555;49.920;17.868;2024-03-22T11:10:48;12.93;;;6.87;;
69910;SDS011;63555;49.920;17.868;2024-03-22T11:15:48;11.60;;;6.13;;
69910;SDS011;63555;49.920;17.868;2024-03-22T11:20:49;11.25;;;6.22;;
69910;SDS011;63555;49.920;17.868;2024-03-22T11:25:50;16.20;;;6.40;;
69910;SDS011;63555;49.920;17.868;2024-03-22T11:30:51;9.82;;;5.18;;
69910;SDS011;63555;49.920;17.868;2024-03-22T11:35:51;12.00;;;5.40;;
69910;SDS011;63555;49.920;17.868;2024-03-22T11:40:52;10.87;;;5.77;;
69910;SDS011;63555;49.920;17.868;2024-03-22T11:45:54;9.63;;;5.28;;
69910;SDS011;63555;49.920;17.868;2024-03-22T11:50:56;10.47;;;5.57;;
69910;SDS011;63555;49.920;17.868;2024-03-22T11:55:58;7.72;;;4.30;;
69910;SDS011;63555;49.920;17.868;2024-03-22T12:00:59;7.27;;;4.00;;
69910;SDS011;63555;49.920;17.868;2024-03-22T12:05:59;6.40;;;3.70;;
69910;SDS011;63555;49.920;17.868;2024-03-22T12:11:00;9.67;;;5.37;;
69910;SDS011;63555;49.920;17.868;2024-03-22T12:16:00;4.43;;;2.00;;
69910;SDS011;63555;49.920;17.868;2024-03-22T12:21:02;4.82;;;2.20;;
69910;SDS011;63555;49.920;17.868;2024-03-22T12:26:02;3.93;;;2.17;;
69910;SDS011;63555;49.920;17.868;2024-03-22T12:31:04;4.37;;;2.30;;
69910;SDS011;63555;49.920;17.868;2024-03-22T12:36:04;7.72;;;2.92;;
69910;SDS011;63555;49.920;17.868;2024-03-22T12:41:05;5.63;;;3.20;;
69910;SDS011;63555;49.920;17.868;2024-03-22T12:46:05;6.00;;;3.57;;
69910;SDS011;63555;49.920;17.868;2024-03-22T12:51:07;7.78;;;3.67;;
69910;SDS011;63555;49.920;17.868;2024-03-22T12:56:07;7.87;;;4.50;;
69910;SDS011;63555;49.920;17.868;2024-03-22T13:01:08;8.73;;;4.95;;
69910;SDS011;63555;49.920;17.868;2024-03-22T13:06:10;9.43;;;5.37;;
69910;SDS011;63555;49.920;17.868;2024-03-22T13:11:11;9.20;;;4.73;;
69910;SDS011;63555;49.920;17.868;2024-03-22T13:16:11;9.10;;;4.50;;
69910;SDS011;63555;49.920;17.868;2024-03-22T13:21:14;9.10;;;4.80;;
69910;SDS011;63555;49.920;17.868;2024-03-22T13:26:15;8.80;;;4.90;;
69910;SDS011;63555;49.920;17.868;2024-03-22T13:31:15;7.67;;;4.13;;
69910;SDS011;63555;49.920;17.868;2024-03-22T13:36:16;10.03;;;3.93;;
69910;SDS011;63555;49.920;17.868;2024-03-22T13:41:18;7.22;;;3.88;;
69910;SDS011;63555;49.920;17.868;2024-03-22T13:46:18;9.57;;;3.83;;
69910;SDS011;63555;49.920;17.868;2024-03-22T13:51:18;9.47;;;4.17;;
69910;SDS011;63555;49.920;17.868;2024-03-22T13:56:19;8.00;;;3.60;;
69910;SDS011;63555;49.920;17.868;2024-03-22T14:01:19;9.77;;;3.80;;
69910;SDS011;63555;49.920;17.868;2024-03-22T14:06:19;8.63;;;4.37;;
69910;SDS011;63555;49.920;17.868;2024-03-22T14:11:20;26.00;;;5.87;;
69910;SDS011;63555;49.920;17.868;2024-03-22T14:16:20;11.27;;;5.07;;
69910;SDS011;63555;49.920;17.868;2024-03-22T14:21:21;12.00;;;5.03;;
69910;SDS011;63555;49.920;17.868;2024-03-22T14:26:21;10.03;;;5.50;;
69910;SDS011;63555;49.920;17.868;2024-03-22T14:31:23;9.55;;;5.13;;
69910;SDS011;63555;49.920;17.868;2024-03-22T14:36:24;10.20;;;5.03;;
69910;SDS011;63555;49.920;17.868;2024-03-22T14:41:24;11.53;;;5.50;;
69910;SDS011;63555;49.920;17.868;2024-03-22T14:46:24;10.50;;;5.47;;
69910;SDS011;63555;49.920;17.868;2024-03-22T14:51:26;10.97;;;5.33;;
69910;SDS011;63555;49.920;17.868;2024-03-22T14:56:27;9.20;;;4.70;;
69910;SDS011;63555;49.920;17.868;2024-03-22T15:01:27;12.27;;;6.00;;
69910;SDS011;63555;49.920;17.868;2024-03-22T15:06:28;10.67;;;5.40;;
69910;SDS011;63555;49.920;17.868;2024-03-22T15:11:31;10.35;;;5.20;;
69910;SDS011;63555;49.920;17.868;2024-03-22T15:16:31;11.47;;;5.40;;
69910;SDS011;63555;49.920;17.868;2024-03-22T15:21:31;9.07;;;4.63;;
69910;SDS011;63555;49.920;17.868;2024-03-22T15:26:32;11.37;;;5.40;;
69910;SDS011;63555;49.920;17.868;2024-03-22T15:31:32;9.03;;;4.73;;
69910;SDS011;63555;49.920;17.868;2024-03-22T15:36:33;8.40;;;4.60;;
69910;SDS011;63555;49.920;17.868;2024-03-22T15:41:33;7.27;;;4.10;;
69910;SDS011;63555;49.920;17.868;2024-03-22T15:46:34;7.87;;;3.70;;
69910;SDS011;63555;49.920;17.868;2024-03-22T15:51:34;8.23;;;4.00;;
69910;SDS011;63555;49.920;17.868;2024-03-22T15:56:34;6.80;;;3.67;;
69910;SDS011;63555;49.920;17.868;2024-03-22T16:01:35;7.13;;;3.27;;
69910;SDS011;63555;49.920;17.868;2024-03-22T16:06:35;7.47;;;3.13;;
69910;SDS011;63555;49.920;17.868;2024-03-22T16:11:35;7.70;;;3.00;;
69910;SDS011;63555;49.920;17.868;2024-03-22T16:16:36;8.70;;;3.43;;
69910;SDS011;63555;49.920;17.868;2024-03-22T16:21:36;6.13;;;3.30;;
69910;SDS011;63555;49.920;17.868;2024-03-22T16:26:37;7.60;;;3.60;;
69910;SDS011;63555;49.920;17.868;2024-03-22T16:31:37;6.13;;;3.20;;
69910;SDS011;63555;49.920;17.868;2024-03-22T16:36:38;19.30;;;9.68;;
69910;SDS011;63555;49.920;17.868;2024-03-22T16:41:38;14.20;;;7.45;;
69910;SDS011;63555;49.920;17.868;2024-03-22T16:46:39;9.50;;;4.80;;
69910;SDS011;63555;49.920;17.868;2024-03-22T16:51:39;10.10;;;4.63;;
69910;SDS011;63555;49.920;17.868;2024-03-22T16:56:40;13.13;;;5.73;;
69910;SDS011;63555;49.920;17.868;2024-03-22T17:01:41;16.98;;;6.43;;
69910;SDS011;63555;49.920;17.868;2024-03-22T17:06:42;12.83;;;6.33;;
69910;SDS011;63555;49.920;17.868;2024-03-22T17:11:42;10.07;;;5.00;;
69910;SDS011;63555;49.920;17.868;2024-03-22T17:16:42;12.77;;;6.20;;
69910;SDS011;63555;49.920;17.868;2024-03-22T17:21:43;11.40;;;4.90;;
69910;SDS011;63555;49.920;17.868;2024-03-22T17:26:43;8.48;;;4.53;;
69910;SDS011;63555;49.920;17.868;2024-03-22T17:31:44;19.00;;;7.88;;
69910;SDS011;63555;49.920;17.868;2024-03-22T17:36:45;12.10;;;5.33;;
69910;SDS011;63555;49.920;17.868;2024-03-22T17:41:46;9.40;;;5.22;;
69910;SDS011;63555;49.920;17.868;2024-03-22T17:46:46;13.40;;;7.87;;
69910;SDS011;63555;49.920;17.868;2024-03-22T17:51:46;12.53;;;6.67;;
69910;SDS011;63555;49.920;17.868;2024-03-22T17:56:47;14.63;;;7.10;;
69910;SDS011;63555;49.920;17.868;2024-03-22T18:01:47;13.23;;;6.33;;
69910;SDS011;63555;49.920;17.868;2024-03-22T18:06:48;12.20;;;6.20;;
69910;SDS011;63555;49.920;17.868;2024-03-22T18:11:49;11.85;;;5.47;;
69910;SDS011;63555;49.920;17.868;2024-03-22T18:16:50;12.32;;;6.03;;
69910;SDS011;63555;49.920;17.868;2024-03-22T18:21:51;10.05;;;5.20;;
69910;SDS011;63555;49.920;17.868;2024-03-22T18:26:53;12.00;;;5.60;;
69910;SDS011;63555;49.920;17.868;2024-03-22T18:31:54;11.93;;;6.25;;
69910;SDS011;63555;49.920;17.868;2024-03-22T18:36:54;12.47;;;5.50;;
69910;SDS011;63555;49.920;17.868;2024-03-22T18:41:55;13.50;;;6.27;;
69910;SDS011;63555;49.920;17.868;2024-03-22T18:46:55;14.00;;;6.10;;
69910;SDS011;63555;49.920;17.868;2024-03-22T18:51:56;16.63;;;7.60;;
69910;SDS011;63555;49.920;17.868;2024-03-22T18:56:56;14.77;;;6.70;;
69910;SDS011;63555;49.920;17.868;2024-03-22T19:01:57;15.80;;;6.63;;
69910;SDS011;63555;49.920;17.868;2024-03-22T19:06:57;13.90;;;6.50;;
69910;SDS011;63555;49.920;17.868;2024-03-22T19:12:00;12.45;;;5.93;;
69910;SDS011;63555;49.920;17.868;2024-03-22T19:17:01;16.07;;;7.20;;
69910;SDS011;63555;49.920;17.868;2024-03-22T19:22:01;22.03;;;8.00;;
69910;SDS011;63555;49.920;17.868;2024-03-22T19:27:03;22.10;;;10.60;;
69910;SDS011;63555;49.920;17.868;2024-03-22T19:32:05;20.48;;;8.93;;
69910;SDS011;63555;49.920;17.868;2024-03-22T19:37:05;20.47;;;9.53;;
69910;SDS011;63555;49.920;17.868;2024-03-22T19:42:08;16.58;;;8.38;;
69910;SDS011;63555;49.920;17.868;2024-03-22T19:47:09;16.20;;;8.20;;
69910;SDS011;63555;49.920;17.868;2024-03-22T19:52:09;20.65;;;9.65;;
69910;SDS011;63555;49.920;17.868;2024-03-22T19:57:10;18.00;;;9.00;;
69910;SDS011;63555;49.920;17.868;2024-03-22T20:02:12;18.67;;;9.10;;
69910;SDS011;63555;49.920;17.868;2024-03-22T20:07:13;19.97;;;7.97;;
69910;SDS011;63555;49.920;17.868;2024-03-22T20:12:13;16.90;;;7.57;;
69910;SDS011;63555;49.920;17.868;2024-03-22T20:17:14;15.40;;;7.50;;
69910;SDS011;63555;49.920;17.868;2024-03-22T20:22:14;19.13;;;8.10;;
69910;SDS011;63555;49.920;17.868;2024-03-22T20:27:15;15.23;;;6.93;;
69910;SDS011;63555;49.920;17.868;2024-03-22T20:32:17;16.08;;;7.60;;
69910;SDS011;63555;49.920;17.868;2024-03-22T20:37:17;15.75;;;7.53;;
